createdAt,value
2023-08-14T00:00:00.000Z,79.39
2023-08-14T00:15:00.000Z,79.28
2023-08-14T00:30:00.000Z,77.36
2023-08-14T00:45:00.000Z,78.23
2023-08-14T01:00:00.000Z,80.96
2023-08-14T01:15:00.000Z,81.67
2023-08-14T01:30:00.000Z,81.92
2023-08-14T01:45:00.000Z,82.04
2023-08-14T02:00:00.000Z,80.83
2023-08-14T02:15:00.000Z,78.24
2023-08-14T02:30:00.000Z,79.38
2023-08-14T02:45:00.000Z,78.88
2023-08-14T03:00:00.000Z,76.44
2023-08-14T03:15:00.000Z,77.45
2023-08-14T03:30:00.000Z,77.88
2023-08-14T03:45:00.000Z,79.77
2023-08-14T04:00:00.000Z,80.76
2023-08-14T04:15:00.000Z,80.78
2023-08-14T04:30:00.000Z,80.35
2023-08-14T04:45:00.000Z,81.01
2023-08-14T05:00:00.000Z,80.63
2023-08-14T05:15:00.000Z,75.61
2023-08-14T05:30:00.000Z,64.97
2023-08-14T05:45:00.000Z,57.69
2023-08-14T06:00:00.000Z,55.23
2023-08-14T06:15:00.000Z,53.31
2023-08-14T06:30:00.000Z,51.61
2023-08-14T06:45:00.000Z,49.44
2023-08-14T07:00:00.000Z,44.61
2023-08-14T07:15:00.000Z,43.8
2023-08-14T07:30:00.000Z,44.47
2023-08-14T07:45:00.000Z,44.26
2023-08-14T08:00:00.000Z,42.72
2023-08-14T08:15:00.000Z,42.07
2023-08-14T08:30:00.000Z,41.7
2023-08-14T08:45:00.000Z,41.56
2023-08-14T09:00:00.000Z,41.49
2023-08-14T09:15:00.000Z,40.35
2023-08-14T09:30:00.000Z,39.72
2023-08-14T09:45:00.000Z,40.39
2023-08-14T10:00:00.000Z,41.26
2023-08-14T10:15:00.000Z,43.73
2023-08-14T10:30:00.000Z,44.96
2023-08-14T10:45:00.000Z,45.41
2023-08-14T11:00:00.000Z,46.09
2023-08-14T11:15:00.000Z,45.99
2023-08-14T11:30:00.000Z,45.41
2023-08-14T11:45:00.000Z,45.71
2023-08-14T12:00:00.000Z,46.51
2023-08-14T12:15:00.000Z,48.7
2023-08-14T12:30:00.000Z,49.22
2023-08-14T12:45:00.000Z,48.5
2023-08-14T13:00:00.000Z,47.76
2023-08-14T13:15:00.000Z,46.37
2023-08-14T13:30:00.000Z,44.79
2023-08-14T13:45:00.000Z,42.93
2023-08-14T14:00:00.000Z,44.32
2023-08-14T14:15:00.000Z,45.43
2023-08-14T14:30:00.000Z,47.71
2023-08-14T14:45:00.000Z,48.05
2023-08-14T15:00:00.000Z,49.43
2023-08-14T15:15:00.000Z,50.02
2023-08-14T15:30:00.000Z,50.45
2023-08-14T15:45:00.000Z,50.9
2023-08-14T16:00:00.000Z,50.24
2023-08-14T16:15:00.000Z,50.93
2023-08-14T16:30:00.000Z,51.69
2023-08-14T16:45:00.000Z,53
2023-08-14T17:00:00.000Z,55.36
2023-08-14T17:15:00.000Z,56.63
2023-08-14T17:30:00.000Z,58.03
2023-08-14T17:45:00.000Z,58.97
2023-08-14T18:00:00.000Z,60.28
2023-08-14T18:15:00.000Z,61.63
2023-08-14T18:30:00.000Z,63.05
2023-08-14T18:45:00.000Z,65.29
2023-08-14T19:00:00.000Z,67.8
2023-08-14T19:15:00.000Z,68.74
2023-08-14T19:30:00.000Z,70.08
2023-08-14T19:45:00.000Z,71.21
2023-08-14T20:00:00.000Z,72.64
2023-08-14T20:15:00.000Z,72.7
2023-08-14T20:30:00.000Z,72.75
2023-08-14T20:45:00.000Z,73.49
2023-08-14T21:00:00.000Z,73.88
2023-08-14T21:15:00.000Z,74.49
2023-08-14T21:30:00.000Z,74.72
2023-08-14T21:45:00.000Z,75.11
2023-08-14T22:00:00.000Z,74.59
2023-08-14T22:15:00.000Z,74.51
2023-08-14T22:30:00.000Z,73.89
2023-08-14T22:45:00.000Z,73.59
2023-08-14T23:00:00.000Z,73.07
2023-08-14T23:15:00.000Z,70.92
2023-08-14T23:30:00.000Z,68.27
2023-08-14T23:45:00.000Z,66.4
